sensor_id;sensor_type;location;lat;lon;timestamp;P1;durP1;ratioP1;P2;durP2;ratioP2
3074;SDS011;1548;51.716;8.748;2022-09-06T00:00:35;765.07;;;706.07;;
3074;SDS011;1548;51.716;8.748;2022-09-06T00:03:01;785.97;;;748.47;;
3074;SDS011;1548;51.716;8.748;2022-09-06T00:05:27;846.70;;;806.33;;
3074;SDS011;1548;51.716;8.748;2022-09-06T00:07:56;768.97;;;713.47;;
3074;SDS011;1548;51.716;8.748;2022-09-06T00:10:23;801.37;;;763.13;;
3074;SDS011;1548;51.716;8.748;2022-09-06T00:12:48;829.00;;;789.47;;
3074;SDS011;1548;51.716;8.748;2022-09-06T00:15:14;799.50;;;758.60;;
3074;SDS011;1548;51.716;8.748;2022-09-06T00:17:39;795.10;;;742.73;;
3074;SDS011;1548;51.716;8.748;2022-09-06T00:20:05;798.03;;;743.03;;
3074;SDS011;1548;51.716;8.748;2022-09-06T00:22:33;625.23;;;353.47;;
3074;SDS011;1548;51.716;8.748;2022-09-06T00:25:00;703.33;;;595.57;;
3074;SDS011;1548;51.716;8.748;2022-09-06T00:27:26;764.23;;;726.83;;
3074;SDS011;1548;51.716;8.748;2022-09-06T00:29:52;555.17;;;295.67;;
3074;SDS011;1548;51.716;8.748;2022-09-06T00:32:18;811.23;;;772.53;;
3074;SDS011;1548;51.716;8.748;2022-09-06T00:34:43;756.83;;;720.77;;
3074;SDS011;1548;51.716;8.748;2022-09-06T00:37:09;784.17;;;742.43;;
3074;SDS011;1548;51.716;8.748;2022-09-06T00:39:34;826.00;;;786.60;;
3074;SDS011;1548;51.716;8.748;2022-09-06T00:42:00;843.50;;;803.30;;
3074;SDS011;1548;51.716;8.748;2022-09-06T00:44:26;482.43;;;167.27;;
3074;SDS011;1548;51.716;8.748;2022-09-06T00:46:51;198.90;;;189.40;;
3074;SDS011;1548;51.716;8.748;2022-09-06T00:49:27;782.97;;;731.03;;
3074;SDS011;1548;51.716;8.748;2022-09-06T00:51:57;792.57;;;750.03;;
3074;SDS011;1548;51.716;8.748;2022-09-06T00:54:31;704.37;;;597.07;;
3074;SDS011;1548;51.716;8.748;2022-09-06T00:56:57;768.20;;;680.73;;
3074;SDS011;1548;51.716;8.748;2022-09-06T00:59:24;775.00;;;703.03;;
3074;SDS011;1548;51.716;8.748;2022-09-06T01:01:52;747.67;;;642.93;;
3074;SDS011;1548;51.716;8.748;2022-09-06T01:04:18;810.03;;;771.43;;
3074;SDS011;1548;51.716;8.748;2022-09-06T01:06:52;821.53;;;782.37;;
3074;SDS011;1548;51.716;8.748;2022-09-06T01:20:09;744.03;;;631.03;;
3074;SDS011;1548;51.716;8.748;2022-09-06T01:22:57;743.40;;;642.83;;
3074;SDS011;1548;51.716;8.748;2022-09-06T01:36:28;497.90;;;173.57;;
3074;SDS011;1548;51.716;8.748;2022-09-06T01:39:23;512.60;;;132.63;;
3074;SDS011;1548;51.716;8.748;2022-09-06T01:41:51;516.77;;;114.93;;
3074;SDS011;1548;51.716;8.748;2022-09-06T01:44:19;515.57;;;123.03;;
3074;SDS011;1548;51.716;8.748;2022-09-06T01:46:55;513.03;;;126.67;;
3074;SDS011;1548;51.716;8.748;2022-09-06T01:52:32;732.33;;;581.83;;
3074;SDS011;1548;51.716;8.748;2022-09-06T01:55:17;531.63;;;160.03;;
3074;SDS011;1548;51.716;8.748;2022-09-06T02:00:24;495.40;;;153.77;;
3074;SDS011;1548;51.716;8.748;2022-09-06T02:08:13;771.23;;;710.30;;
3074;SDS011;1548;51.716;8.748;2022-09-06T02:10:51;766.83;;;691.63;;
3074;SDS011;1548;51.716;8.748;2022-09-06T02:13:23;755.73;;;678.57;;
3074;SDS011;1548;51.716;8.748;2022-09-06T02:15:55;809.63;;;771.03;;
3074;SDS011;1548;51.716;8.748;2022-09-06T02:18:39;772.53;;;709.37;;
3074;SDS011;1548;51.716;8.748;2022-09-06T02:21:14;775.23;;;730.53;;
3074;SDS011;1548;51.716;8.748;2022-09-06T02:23:42;777.80;;;722.37;;
3074;SDS011;1548;51.716;8.748;2022-09-06T02:26:10;750.87;;;646.63;;
3074;SDS011;1548;51.716;8.748;2022-09-06T02:28:40;756.27;;;677.00;;
3074;SDS011;1548;51.716;8.748;2022-09-06T02:31:10;765.60;;;685.10;;
3074;SDS011;1548;51.716;8.748;2022-09-06T02:33:42;750.20;;;642.93;;
3074;SDS011;1548;51.716;8.748;2022-09-06T02:36:09;746.67;;;644.47;;
3074;SDS011;1548;51.716;8.748;2022-09-06T02:38:35;514.50;;;100.73;;
3074;SDS011;1548;51.716;8.748;2022-09-06T02:41:03;519.47;;;91.33;;
3074;SDS011;1548;51.716;8.748;2022-09-06T02:43:30;511.87;;;99.37;;
3074;SDS011;1548;51.716;8.748;2022-09-06T02:45:55;515.63;;;103.53;;
3074;SDS011;1548;51.716;8.748;2022-09-06T02:48:21;511.73;;;121.27;;
3074;SDS011;1548;51.716;8.748;2022-09-06T02:50:47;512.73;;;118.50;;
3074;SDS011;1548;51.716;8.748;2022-09-06T02:53:13;502.73;;;104.77;;
3074;SDS011;1548;51.716;8.748;2022-09-06T02:55:39;513.40;;;93.37;;
3074;SDS011;1548;51.716;8.748;2022-09-06T02:58:05;400.30;;;240.93;;
3074;SDS011;1548;51.716;8.748;2022-09-06T03:00:33;526.27;;;181.27;;
3074;SDS011;1548;51.716;8.748;2022-09-06T03:02:58;683.67;;;504.63;;
3074;SDS011;1548;51.716;8.748;2022-09-06T03:05:24;514.00;;;110.60;;
3074;SDS011;1548;51.716;8.748;2022-09-06T03:07:51;508.83;;;119.37;;
3074;SDS011;1548;51.716;8.748;2022-09-06T03:10:18;504.37;;;137.77;;
3074;SDS011;1548;51.716;8.748;2022-09-06T03:12:44;638.77;;;494.10;;
3074;SDS011;1548;51.716;8.748;2022-09-06T03:15:10;749.07;;;622.13;;
3074;SDS011;1548;51.716;8.748;2022-09-06T03:17:38;774.20;;;709.53;;
3074;SDS011;1548;51.716;8.748;2022-09-06T03:20:04;789.80;;;728.20;;
3074;SDS011;1548;51.716;8.748;2022-09-06T03:22:31;685.23;;;581.97;;
3074;SDS011;1548;51.716;8.748;2022-09-06T03:24:57;772.13;;;702.77;;
3074;SDS011;1548;51.716;8.748;2022-09-06T03:27:22;784.20;;;711.50;;
3074;SDS011;1548;51.716;8.748;2022-09-06T03:29:48;737.47;;;615.80;;
3074;SDS011;1548;51.716;8.748;2022-09-06T03:32:14;732.47;;;571.70;;
3074;SDS011;1548;51.716;8.748;2022-09-06T03:34:39;663.97;;;499.17;;
3074;SDS011;1548;51.716;8.748;2022-09-06T03:37:05;851.13;;;665.37;;
3074;SDS011;1548;51.716;8.748;2022-09-06T03:39:31;704.43;;;597.30;;
3074;SDS011;1548;51.716;8.748;2022-09-06T03:41:56;754.47;;;670.33;;
3074;SDS011;1548;51.716;8.748;2022-09-06T03:44:22;776.43;;;713.80;;
3074;SDS011;1548;51.716;8.748;2022-09-06T03:46:47;767.60;;;671.37;;
3074;SDS011;1548;51.716;8.748;2022-09-06T03:49:13;732.07;;;643.83;;
3074;SDS011;1548;51.716;8.748;2022-09-06T03:51:38;573.63;;;234.30;;
3074;SDS011;1548;51.716;8.748;2022-09-06T03:54:04;482.30;;;142.07;;
3074;SDS011;1548;51.716;8.748;2022-09-06T03:56:30;493.20;;;137.93;;
3074;SDS011;1548;51.716;8.748;2022-09-06T03:58:55;419.20;;;172.23;;
3074;SDS011;1548;51.716;8.748;2022-09-06T04:01:21;472.00;;;167.90;;
3074;SDS011;1548;51.716;8.748;2022-09-06T04:03:47;408.00;;;171.87;;
3074;SDS011;1548;51.716;8.748;2022-09-06T04:06:12;584.73;;;383.50;;
3074;SDS011;1548;51.716;8.748;2022-09-06T04:08:38;586.03;;;426.00;;
3074;SDS011;1548;51.716;8.748;2022-09-06T04:11:03;770.03;;;698.93;;
3074;SDS011;1548;51.716;8.748;2022-09-06T04:13:30;401.17;;;126.67;;
3074;SDS011;1548;51.716;8.748;2022-09-06T04:15:56;726.87;;;630.50;;
3074;SDS011;1548;51.716;8.748;2022-09-06T04:18:22;499.50;;;93.43;;
3074;SDS011;1548;51.716;8.748;2022-09-06T04:20:52;578.43;;;238.90;;
3074;SDS011;1548;51.716;8.748;2022-09-06T04:23:19;519.93;;;106.03;;
3074;SDS011;1548;51.716;8.748;2022-09-06T04:25:47;460.53;;;138.77;;
3074;SDS011;1548;51.716;8.748;2022-09-06T04:28:14;436.93;;;171.77;;
3074;SDS011;1548;51.716;8.748;2022-09-06T04:30:42;437.30;;;169.37;;
3074;SDS011;1548;51.716;8.748;2022-09-06T04:33:08;420.50;;;172.50;;
3074;SDS011;1548;51.716;8.748;2022-09-06T04:35:34;412.30;;;184.97;;
3074;SDS011;1548;51.716;8.748;2022-09-06T04:38:00;484.97;;;198.70;;
3074;SDS011;1548;51.716;8.748;2022-09-06T04:40:26;578.60;;;411.30;;
3074;SDS011;1548;51.716;8.748;2022-09-06T04:42:51;707.60;;;565.47;;
3074;SDS011;1548;51.716;8.748;2022-09-06T04:45:17;407.93;;;155.70;;
3074;SDS011;1548;51.716;8.748;2022-09-06T04:47:43;436.63;;;116.73;;
3074;SDS011;1548;51.716;8.748;2022-09-06T04:50:09;353.10;;;156.97;;
3074;SDS011;1548;51.716;8.748;2022-09-06T04:52:34;372.33;;;166.80;;
3074;SDS011;1548;51.716;8.748;2022-09-06T04:55:00;400.40;;;152.60;;
3074;SDS011;1548;51.716;8.748;2022-09-06T04:57:26;560.57;;;413.00;;
3074;SDS011;1548;51.716;8.748;2022-09-06T04:59:51;726.90;;;610.83;;
3074;SDS011;1548;51.716;8.748;2022-09-06T05:02:17;747.03;;;644.47;;
3074;SDS011;1548;51.716;8.748;2022-09-06T05:04:42;753.67;;;651.97;;
3074;SDS011;1548;51.716;8.748;2022-09-06T05:07:08;705.97;;;611.57;;
3074;SDS011;1548;51.716;8.748;2022-09-06T05:09:33;414.87;;;207.27;;
3074;SDS011;1548;51.716;8.748;2022-09-06T05:12:00;476.33;;;119.03;;
3074;SDS011;1548;51.716;8.748;2022-09-06T05:14:26;491.37;;;240.30;;
3074;SDS011;1548;51.716;8.748;2022-09-06T05:16:52;511.57;;;107.97;;
3074;SDS011;1548;51.716;8.748;2022-09-06T05:19:18;481.10;;;164.33;;
3074;SDS011;1548;51.716;8.748;2022-09-06T05:21:45;514.77;;;96.13;;
3074;SDS011;1548;51.716;8.748;2022-09-06T05:24:10;512.50;;;103.17;;
3074;SDS011;1548;51.716;8.748;2022-09-06T05:26:36;487.23;;;126.97;;
3074;SDS011;1548;51.716;8.748;2022-09-06T05:29:02;398.53;;;123.03;;
3074;SDS011;1548;51.716;8.748;2022-09-06T05:31:28;454.37;;;127.00;;
3074;SDS011;1548;51.716;8.748;2022-09-06T05:33:55;460.77;;;160.53;;
3074;SDS011;1548;51.716;8.748;2022-09-06T05:36:22;472.83;;;101.00;;
3074;SDS011;1548;51.716;8.748;2022-09-06T05:38:50;383.93;;;119.97;;
3074;SDS011;1548;51.716;8.748;2022-09-06T05:41:16;514.83;;;284.23;;
3074;SDS011;1548;51.716;8.748;2022-09-06T05:43:42;442.17;;;164.87;;
3074;SDS011;1548;51.716;8.748;2022-09-06T05:46:08;447.03;;;127.33;;
3074;SDS011;1548;51.716;8.748;2022-09-06T05:48:34;476.00;;;163.53;;
3074;SDS011;1548;51.716;8.748;2022-09-06T05:51:00;507.13;;;128.90;;
3074;SDS011;1548;51.716;8.748;2022-09-06T05:53:32;517.47;;;111.40;;
3074;SDS011;1548;51.716;8.748;2022-09-06T05:56:03;497.60;;;97.33;;
3074;SDS011;1548;51.716;8.748;2022-09-06T05:58:29;468.93;;;192.53;;
3074;SDS011;1548;51.716;8.748;2022-09-06T06:03:50;495.63;;;130.07;;
3074;SDS011;1548;51.716;8.748;2022-09-06T06:06:21;594.70;;;332.03;;
3074;SDS011;1548;51.716;8.748;2022-09-06T06:08:47;484.70;;;137.37;;
3074;SDS011;1548;51.716;8.748;2022-09-06T06:11:13;358.17;;;121.67;;
3074;SDS011;1548;51.716;8.748;2022-09-06T06:13:40;719.63;;;685.33;;
3074;SDS011;1548;51.716;8.748;2022-09-06T06:16:08;565.33;;;263.40;;
3074;SDS011;1548;51.716;8.748;2022-09-06T06:18:35;460.97;;;125.93;;
3074;SDS011;1548;51.716;8.748;2022-09-06T06:21:08;504.37;;;99.33;;
3074;SDS011;1548;51.716;8.748;2022-09-06T06:23:38;490.53;;;92.23;;
3074;SDS011;1548;51.716;8.748;2022-09-06T06:26:04;521.67;;;97.63;;
3074;SDS011;1548;51.716;8.748;2022-09-06T06:28:31;604.27;;;315.00;;
3074;SDS011;1548;51.716;8.748;2022-09-06T06:30:57;783.83;;;694.27;;
3074;SDS011;1548;51.716;8.748;2022-09-06T06:33:23;752.43;;;640.47;;
3074;SDS011;1548;51.716;8.748;2022-09-06T06:35:55;699.47;;;575.77;;
3074;SDS011;1548;51.716;8.748;2022-09-06T06:40:56;503.03;;;107.77;;
3074;SDS011;1548;51.716;8.748;2022-09-06T06:43:22;473.80;;;100.13;;
3074;SDS011;1548;51.716;8.748;2022-09-06T06:45:48;511.10;;;116.30;;
3074;SDS011;1548;51.716;8.748;2022-09-06T06:48:15;513.73;;;92.83;;
3074;SDS011;1548;51.716;8.748;2022-09-06T06:50:41;495.87;;;87.17;;
3074;SDS011;1548;51.716;8.748;2022-09-06T06:53:06;450.30;;;112.10;;
3074;SDS011;1548;51.716;8.748;2022-09-06T06:55:32;504.20;;;128.87;;
3074;SDS011;1548;51.716;8.748;2022-09-06T06:57:58;490.00;;;125.73;;
3074;SDS011;1548;51.716;8.748;2022-09-06T07:00:24;545.93;;;397.77;;
3074;SDS011;1548;51.716;8.748;2022-09-06T07:02:49;701.30;;;565.67;;
3074;SDS011;1548;51.716;8.748;2022-09-06T07:05:16;755.83;;;666.67;;
3074;SDS011;1548;51.716;8.748;2022-09-06T07:07:42;718.93;;;631.80;;
3074;SDS011;1548;51.716;8.748;2022-09-06T07:10:08;498.40;;;191.40;;
3074;SDS011;1548;51.716;8.748;2022-09-06T07:12:34;507.60;;;130.50;;
3074;SDS011;1548;51.716;8.748;2022-09-06T07:14:59;502.47;;;101.93;;
3074;SDS011;1548;51.716;8.748;2022-09-06T07:17:25;503.60;;;89.10;;
3074;SDS011;1548;51.716;8.748;2022-09-06T07:19:51;506.10;;;92.90;;
3074;SDS011;1548;51.716;8.748;2022-09-06T07:22:17;528.93;;;110.57;;
3074;SDS011;1548;51.716;8.748;2022-09-06T07:24:42;517.67;;;101.07;;
3074;SDS011;1548;51.716;8.748;2022-09-06T07:27:08;510.27;;;94.37;;
3074;SDS011;1548;51.716;8.748;2022-09-06T07:29:34;515.13;;;99.73;;
3074;SDS011;1548;51.716;8.748;2022-09-06T07:32:00;559.83;;;209.17;;
3074;SDS011;1548;51.716;8.748;2022-09-06T07:34:26;550.17;;;289.50;;
3074;SDS011;1548;51.716;8.748;2022-09-06T07:36:52;829.23;;;789.67;;
3074;SDS011;1548;51.716;8.748;2022-09-06T07:39:18;839.13;;;799.13;;
3074;SDS011;1548;51.716;8.748;2022-09-06T07:41:44;913.57;;;870.00;;
3074;SDS011;1548;51.716;8.748;2022-09-06T07:44:10;902.90;;;859.87;;
3074;SDS011;1548;51.716;8.748;2022-09-06T07:46:35;871.53;;;830.00;;
3074;SDS011;1548;51.716;8.748;2022-09-06T07:49:02;896.83;;;854.07;;
3074;SDS011;1548;51.716;8.748;2022-09-06T07:51:29;862.63;;;821.50;;
3074;SDS011;1548;51.716;8.748;2022-09-06T07:53:54;779.27;;;706.83;;
3074;SDS011;1548;51.716;8.748;2022-09-06T07:56:21;516.27;;;110.87;;
3074;SDS011;1548;51.716;8.748;2022-09-06T07:58:47;627.70;;;368.40;;
3074;SDS011;1548;51.716;8.748;2022-09-06T08:01:29;535.50;;;150.03;;
3074;SDS011;1548;51.716;8.748;2022-09-06T08:03:57;525.67;;;121.10;;
3074;SDS011;1548;51.716;8.748;2022-09-06T08:06:24;524.23;;;119.23;;
3074;SDS011;1548;51.716;8.748;2022-09-06T08:08:51;520.83;;;145.40;;
3074;SDS011;1548;51.716;8.748;2022-09-06T08:11:17;503.57;;;165.77;;
3074;SDS011;1548;51.716;8.748;2022-09-06T08:13:43;466.53;;;168.50;;
3074;SDS011;1548;51.716;8.748;2022-09-06T08:16:10;441.10;;;183.23;;
3074;SDS011;1548;51.716;8.748;2022-09-06T08:18:36;475.43;;;164.97;;
3074;SDS011;1548;51.716;8.748;2022-09-06T08:21:06;479.70;;;125.80;;
3074;SDS011;1548;51.716;8.748;2022-09-06T08:23:35;352.73;;;159.63;;
3074;SDS011;1548;51.716;8.748;2022-09-06T08:26:02;524.93;;;120.60;;
3074;SDS011;1548;51.716;8.748;2022-09-06T08:28:27;550.43;;;316.23;;
3074;SDS011;1548;51.716;8.748;2022-09-06T08:30:53;626.37;;;355.10;;
3074;SDS011;1548;51.716;8.748;2022-09-06T08:33:19;522.40;;;128.17;;
3074;SDS011;1548;51.716;8.748;2022-09-06T08:35:54;476.70;;;169.50;;
3074;SDS011;1548;51.716;8.748;2022-09-06T08:38:21;624.50;;;369.80;;
3074;SDS011;1548;51.716;8.748;2022-09-06T08:40:47;744.57;;;689.37;;
3074;SDS011;1548;51.716;8.748;2022-09-06T08:43:15;510.80;;;108.53;;
3074;SDS011;1548;51.716;8.748;2022-09-06T08:45:44;435.27;;;204.07;;
3074;SDS011;1548;51.716;8.748;2022-09-06T08:48:14;454.00;;;175.73;;
3074;SDS011;1548;51.716;8.748;2022-09-06T08:50:40;521.50;;;182.43;;
3074;SDS011;1548;51.716;8.748;2022-09-06T08:53:15;515.20;;;126.23;;
3074;SDS011;1548;51.716;8.748;2022-09-06T08:55:58;470.53;;;117.60;;
3074;SDS011;1548;51.716;8.748;2022-09-06T09:02:08;505.03;;;84.13;;
3074;SDS011;1548;51.716;8.748;2022-09-06T09:04:22;507.30;;;93.30;;
3074;SDS011;1548;51.716;8.748;2022-09-06T09:06:51;515.60;;;106.20;;
3074;SDS011;1548;51.716;8.748;2022-09-06T09:09:22;511.97;;;172.60;;
3074;SDS011;1548;51.716;8.748;2022-09-06T09:11:52;452.83;;;71.73;;
3074;SDS011;1548;51.716;8.748;2022-09-06T09:14:19;502.83;;;85.00;;
3074;SDS011;1548;51.716;8.748;2022-09-06T09:16:53;626.47;;;348.13;;
3074;SDS011;1548;51.716;8.748;2022-09-06T09:19:20;689.30;;;573.20;;
3074;SDS011;1548;51.716;8.748;2022-09-06T09:21:45;382.77;;;191.40;;
3074;SDS011;1548;51.716;8.748;2022-09-06T09:24:12;396.80;;;183.20;;
3074;SDS011;1548;51.716;8.748;2022-09-06T09:26:50;420.40;;;180.30;;
3074;SDS011;1548;51.716;8.748;2022-09-06T09:29:20;502.27;;;176.80;;
3074;SDS011;1548;51.716;8.748;2022-09-06T09:31:47;459.73;;;178.07;;
3074;SDS011;1548;51.716;8.748;2022-09-06T09:34:36;472.50;;;174.83;;
3074;SDS011;1548;51.716;8.748;2022-09-06T09:37:11;483.97;;;175.27;;
3074;SDS011;1548;51.716;8.748;2022-09-06T09:39:41;450.00;;;187.53;;
3074;SDS011;1548;51.716;8.748;2022-09-06T09:42:07;457.13;;;175.07;;
3074;SDS011;1548;51.716;8.748;2022-09-06T09:44:41;467.00;;;181.77;;
3074;SDS011;1548;51.716;8.748;2022-09-06T09:47:20;461.23;;;177.23;;
3074;SDS011;1548;51.716;8.748;2022-09-06T09:49:51;526.00;;;182.97;;
3074;SDS011;1548;51.716;8.748;2022-09-06T09:52:22;459.87;;;175.00;;
3074;SDS011;1548;51.716;8.748;2022-09-06T09:54:56;472.30;;;177.67;;
3074;SDS011;1548;51.716;8.748;2022-09-06T09:57:24;481.97;;;169.57;;
3074;SDS011;1548;51.716;8.748;2022-09-06T09:59:52;484.30;;;171.47;;
3074;SDS011;1548;51.716;8.748;2022-09-06T10:02:32;503.33;;;169.17;;
3074;SDS011;1548;51.716;8.748;2022-09-06T10:05:01;502.90;;;166.67;;
3074;SDS011;1548;51.716;8.748;2022-09-06T10:07:33;514.77;;;157.07;;
3074;SDS011;1548;51.716;8.748;2022-09-06T10:10:11;507.03;;;138.47;;
3074;SDS011;1548;51.716;8.748;2022-09-06T10:12:39;511.07;;;126.20;;
3074;SDS011;1548;51.716;8.748;2022-09-06T10:15:10;567.43;;;174.70;;
3074;SDS011;1548;51.716;8.748;2022-09-06T10:17:55;505.37;;;139.33;;
3074;SDS011;1548;51.716;8.748;2022-09-06T10:20:20;504.30;;;128.07;;
3074;SDS011;1548;51.716;8.748;2022-09-06T10:25:44;584.87;;;345.57;;
3074;SDS011;1548;51.716;8.748;2022-09-06T10:30:43;510.83;;;119.47;;
3074;SDS011;1548;51.716;8.748;2022-09-06T10:35:50;501.63;;;135.30;;
3074;SDS011;1548;51.716;8.748;2022-09-06T10:44:12;458.93;;;162.80;;
3074;SDS011;1548;51.716;8.748;2022-09-06T10:46:45;482.20;;;179.80;;
3074;SDS011;1548;51.716;8.748;2022-09-06T10:49:15;478.83;;;175.40;;
3074;SDS011;1548;51.716;8.748;2022-09-06T10:51:44;508.07;;;117.90;;
3074;SDS011;1548;51.716;8.748;2022-09-06T10:54:22;521.37;;;155.93;;
3074;SDS011;1548;51.716;8.748;2022-09-06T10:57:00;489.00;;;160.17;;
3074;SDS011;1548;51.716;8.748;2022-09-06T10:59:32;508.97;;;285.80;;
3074;SDS011;1548;51.716;8.748;2022-09-06T11:04:49;487.93;;;130.70;;
3074;SDS011;1548;51.716;8.748;2022-09-06T11:07:28;402.23;;;176.90;;
3074;SDS011;1548;51.716;8.748;2022-09-06T11:10:06;409.50;;;183.07;;
3074;SDS011;1548;51.716;8.748;2022-09-06T11:12:48;385.33;;;167.67;;
3074;SDS011;1548;51.716;8.748;2022-09-06T11:15:36;412.73;;;173.67;;
3074;SDS011;1548;51.716;8.748;2022-09-06T11:23:47;516.13;;;134.90;;
3074;SDS011;1548;51.716;8.748;2022-09-06T11:29:29;500.20;;;136.17;;
3074;SDS011;1548;51.716;8.748;2022-09-06T11:31:57;514.90;;;150.70;;
3074;SDS011;1548;51.716;8.748;2022-09-06T11:34:28;460.37;;;184.77;;
3074;SDS011;1548;51.716;8.748;2022-09-06T11:36:57;456.37;;;170.97;;
3074;SDS011;1548;51.716;8.748;2022-09-06T11:39:46;423.70;;;186.67;;
3074;SDS011;1548;51.716;8.748;2022-09-06T11:45:17;385.70;;;176.63;;
3074;SDS011;1548;51.716;8.748;2022-09-06T11:53:22;318.90;;;155.17;;
3074;SDS011;1548;51.716;8.748;2022-09-06T11:58:28;273.83;;;134.23;;
3074;SDS011;1548;51.716;8.748;2022-09-06T12:06:19;390.77;;;93.90;;
3074;SDS011;1548;51.716;8.748;2022-09-06T12:08:46;416.93;;;102.80;;
3074;SDS011;1548;51.716;8.748;2022-09-06T12:19:43;443.10;;;209.83;;
3074;SDS011;1548;51.716;8.748;2022-09-06T12:24:58;546.53;;;216.77;;
3074;SDS011;1548;51.716;8.748;2022-09-06T12:27:30;877.63;;;835.80;;
3074;SDS011;1548;51.716;8.748;2022-09-06T12:32:46;518.80;;;124.07;;
3074;SDS011;1548;51.716;8.748;2022-09-06T12:35:19;501.13;;;175.97;;
3074;SDS011;1548;51.716;8.748;2022-09-06T12:37:52;479.90;;;172.47;;
3074;SDS011;1548;51.716;8.748;2022-09-06T12:40:18;461.33;;;128.10;;
3074;SDS011;1548;51.716;8.748;2022-09-06T12:42:47;482.73;;;175.83;;
3074;SDS011;1548;51.716;8.748;2022-09-06T12:45:13;499.00;;;169.47;;
3074;SDS011;1548;51.716;8.748;2022-09-06T12:47:39;519.50;;;130.67;;
3074;SDS011;1548;51.716;8.748;2022-09-06T12:50:07;526.77;;;114.03;;
3074;SDS011;1548;51.716;8.748;2022-09-06T12:57:55;511.33;;;123.80;;
3074;SDS011;1548;51.716;8.748;2022-09-06T13:00:23;523.33;;;128.17;;
3074;SDS011;1548;51.716;8.748;2022-09-06T13:05:37;519.73;;;117.20;;
3074;SDS011;1548;51.716;8.748;2022-09-06T13:08:06;558.33;;;126.77;;
3074;SDS011;1548;51.716;8.748;2022-09-06T13:10:39;521.00;;;163.43;;
3074;SDS011;1548;51.716;8.748;2022-09-06T13:13:07;520.40;;;145.27;;
3074;SDS011;1548;51.716;8.748;2022-09-06T13:15:33;495.97;;;162.23;;
3074;SDS011;1548;51.716;8.748;2022-09-06T13:21:07;511.53;;;232.90;;
3074;SDS011;1548;51.716;8.748;2022-09-06T13:23:38;525.57;;;135.87;;
3074;SDS011;1548;51.716;8.748;2022-09-06T13:26:06;493.00;;;185.87;;
3074;SDS011;1548;51.716;8.748;2022-09-06T13:28:32;450.20;;;192.60;;
3074;SDS011;1548;51.716;8.748;2022-09-06T13:31:11;475.87;;;175.70;;
3074;SDS011;1548;51.716;8.748;2022-09-06T13:33:41;467.17;;;145.60;;
3074;SDS011;1548;51.716;8.748;2022-09-06T13:36:14;475.27;;;188.87;;
3074;SDS011;1548;51.716;8.748;2022-09-06T13:38:44;423.13;;;182.17;;
3074;SDS011;1548;51.716;8.748;2022-09-06T13:41:31;445.50;;;192.10;;
3074;SDS011;1548;51.716;8.748;2022-09-06T13:44:04;415.13;;;193.03;;
3074;SDS011;1548;51.716;8.748;2022-09-06T13:46:31;486.57;;;186.37;;
3074;SDS011;1548;51.716;8.748;2022-09-06T13:48:59;451.13;;;172.30;;
3074;SDS011;1548;51.716;8.748;2022-09-06T13:51:24;529.80;;;130.23;;
3074;SDS011;1548;51.716;8.748;2022-09-06T13:53:51;540.67;;;176.40;;
3074;SDS011;1548;51.716;8.748;2022-09-06T13:56:28;532.83;;;119.93;;
3074;SDS011;1548;51.716;8.748;2022-09-06T13:58:53;487.77;;;149.93;;
3074;SDS011;1548;51.716;8.748;2022-09-06T14:01:19;495.33;;;184.23;;
3074;SDS011;1548;51.716;8.748;2022-09-06T14:03:45;573.50;;;222.37;;
3074;SDS011;1548;51.716;8.748;2022-09-06T14:06:11;528.23;;;106.77;;
3074;SDS011;1548;51.716;8.748;2022-09-06T14:08:36;570.23;;;179.57;;
3074;SDS011;1548;51.716;8.748;2022-09-06T14:11:03;547.43;;;130.77;;
3074;SDS011;1548;51.716;8.748;2022-09-06T14:13:29;537.83;;;123.27;;
3074;SDS011;1548;51.716;8.748;2022-09-06T14:15:55;522.97;;;107.57;;
3074;SDS011;1548;51.716;8.748;2022-09-06T14:18:20;634.20;;;406.10;;
3074;SDS011;1548;51.716;8.748;2022-09-06T14:20:50;517.10;;;119.17;;
3074;SDS011;1548;51.716;8.748;2022-09-06T14:23:17;507.50;;;116.67;;
3074;SDS011;1548;51.716;8.748;2022-09-06T14:25:42;505.20;;;158.60;;
3074;SDS011;1548;51.716;8.748;2022-09-06T14:28:08;520.13;;;152.93;;
3074;SDS011;1548;51.716;8.748;2022-09-06T14:30:34;598.47;;;246.67;;
3074;SDS011;1548;51.716;8.748;2022-09-06T14:33:01;501.40;;;147.87;;
3074;SDS011;1548;51.716;8.748;2022-09-06T14:35:29;537.60;;;110.57;;
3074;SDS011;1548;51.716;8.748;2022-09-06T14:37:55;531.30;;;123.53;;
3074;SDS011;1548;51.716;8.748;2022-09-06T14:40:21;518.37;;;156.63;;
3074;SDS011;1548;51.716;8.748;2022-09-06T14:42:47;580.53;;;195.63;;
3074;SDS011;1548;51.716;8.748;2022-09-06T14:45:13;533.07;;;163.90;;
3074;SDS011;1548;51.716;8.748;2022-09-06T14:47:39;574.97;;;155.77;;
3074;SDS011;1548;51.716;8.748;2022-09-06T14:50:04;553.60;;;128.33;;
3074;SDS011;1548;51.716;8.748;2022-09-06T14:52:31;530.30;;;133.53;;
3074;SDS011;1548;51.716;8.748;2022-09-06T14:54:57;546.80;;;122.83;;
3074;SDS011;1548;51.716;8.748;2022-09-06T14:57:22;529.33;;;134.80;;
3074;SDS011;1548;51.716;8.748;2022-09-06T14:59:48;536.53;;;141.87;;
3074;SDS011;1548;51.716;8.748;2022-09-06T15:02:13;536.93;;;130.90;;
3074;SDS011;1548;51.716;8.748;2022-09-06T15:04:39;549.73;;;126.50;;
3074;SDS011;1548;51.716;8.748;2022-09-06T15:07:05;535.30;;;132.97;;
3074;SDS011;1548;51.716;8.748;2022-09-06T15:09:32;529.40;;;151.67;;
3074;SDS011;1548;51.716;8.748;2022-09-06T15:11:58;505.33;;;184.80;;
3074;SDS011;1548;51.716;8.748;2022-09-06T15:14:24;530.27;;;162.23;;
3074;SDS011;1548;51.716;8.748;2022-09-06T15:16:53;500.97;;;186.53;;
3074;SDS011;1548;51.716;8.748;2022-09-06T15:19:22;539.67;;;146.13;;
3074;SDS011;1548;51.716;8.748;2022-09-06T15:21:48;520.33;;;160.90;;
3074;SDS011;1548;51.716;8.748;2022-09-06T15:24:14;530.30;;;150.20;;
3074;SDS011;1548;51.716;8.748;2022-09-06T15:26:41;527.03;;;166.97;;
3074;SDS011;1548;51.716;8.748;2022-09-06T15:29:07;521.03;;;167.23;;
3074;SDS011;1548;51.716;8.748;2022-09-06T15:31:35;523.63;;;163.93;;
3074;SDS011;1548;51.716;8.748;2022-09-06T15:34:02;534.57;;;140.33;;
3074;SDS011;1548;51.716;8.748;2022-09-06T15:36:29;503.27;;;143.77;;
3074;SDS011;1548;51.716;8.748;2022-09-06T15:38:57;532.83;;;136.73;;
3074;SDS011;1548;51.716;8.748;2022-09-06T15:41:25;508.70;;;174.50;;
3074;SDS011;1548;51.716;8.748;2022-09-06T15:43:53;529.17;;;161.77;;
3074;SDS011;1548;51.716;8.748;2022-09-06T15:47:06;537.37;;;163.20;;
3074;SDS011;1548;51.716;8.748;2022-09-06T15:49:12;479.70;;;188.53;;
3074;SDS011;1548;51.716;8.748;2022-09-06T15:51:40;499.57;;;194.90;;
3074;SDS011;1548;51.716;8.748;2022-09-06T15:54:07;430.93;;;191.70;;
3074;SDS011;1548;51.716;8.748;2022-09-06T15:56:34;474.70;;;196.37;;
3074;SDS011;1548;51.716;8.748;2022-09-06T15:59:01;517.93;;;186.90;;
3074;SDS011;1548;51.716;8.748;2022-09-06T16:01:26;518.37;;;165.20;;
3074;SDS011;1548;51.716;8.748;2022-09-06T16:03:53;510.57;;;176.40;;
3074;SDS011;1548;51.716;8.748;2022-09-06T16:06:27;486.53;;;178.77;;
3074;SDS011;1548;51.716;8.748;2022-09-06T16:08:59;484.77;;;190.37;;
3074;SDS011;1548;51.716;8.748;2022-09-06T16:11:28;454.70;;;185.47;;
3074;SDS011;1548;51.716;8.748;2022-09-06T16:13:54;463.40;;;177.83;;
3074;SDS011;1548;51.716;8.748;2022-09-06T16:16:20;461.53;;;184.27;;
3074;SDS011;1548;51.716;8.748;2022-09-06T16:18:46;530.20;;;104.67;;